createdAt,value
2022-08-16T05:12:59.534Z,48.67
2022-08-16T05:15:26.981Z,49.44
2022-08-16T05:17:59.606Z,49.37
2022-08-16T05:20:35.720Z,49.37
2022-08-16T05:23:12.125Z,49.71
2022-08-16T05:25:48.449Z,49.61
2022-08-16T05:28:16.909Z,49.77
2022-08-16T05:30:43.488Z,50.19
2022-08-16T05:33:16.395Z,50.10
2022-08-16T05:35:43.673Z,50.39
2022-08-16T05:38:33.498Z,50.26
2022-08-16T05:41:00.102Z,49.23
2022-08-16T05:43:27.909Z,49.22
2022-08-16T05:46:00.379Z,49.31
2022-08-16T05:48:27.334Z,48.93
2022-08-16T05:50:54.167Z,49.62
2022-08-16T05:53:20.741Z,48.56
2022-08-16T05:55:51.708Z,49.28
2022-08-16T05:58:31.844Z,48.62
2022-08-16T06:01:00.049Z,48.72
2022-08-16T06:03:26.566Z,48.97
2022-08-16T06:05:56.350Z,48.69
2022-08-16T06:08:32.069Z,49.02
2022-08-16T06:11:13.248Z,48.99
2022-08-16T06:13:42.093Z,49.36
2022-08-16T06:16:18.038Z,49.02
2022-08-16T06:18:45.428Z,49.34
2022-08-16T06:21:13.594Z,49.53
2022-08-16T06:23:49.702Z,49.18
2022-08-16T06:26:21.054Z,49.59
2022-08-16T06:28:47.668Z,49.36
2022-08-16T06:31:17.107Z,49.30
2022-08-16T06:33:51.822Z,49.46
2022-08-16T06:36:20.985Z,49.35
2022-08-16T06:38:55.354Z,49.63
2022-08-16T06:41:22.959Z,50.14
2022-08-16T06:43:51.288Z,49.82
2022-08-16T06:46:31.620Z,50.14
2022-08-16T06:48:59.547Z,49.73
2022-08-16T06:51:46.234Z,49.78
2022-08-16T06:54:14.013Z,50.00
2022-08-16T06:56:41.084Z,49.95
2022-08-16T06:59:09.077Z,49.45
2022-08-16T07:01:45.220Z,49.26
2022-08-16T07:04:32.458Z,49.27
2022-08-16T07:07:09.557Z,49.25
2022-08-16T07:09:37.076Z,48.99
2022-08-16T07:12:05.605Z,48.95
2022-08-16T07:14:33.283Z,48.91
2022-08-16T07:17:00.440Z,48.60
2022-08-16T07:20:02.518Z,48.36
2022-08-16T07:22:37.274Z,48.16
2022-08-16T07:25:08.370Z,48.12
2022-08-16T07:27:37.376Z,48.10
2022-08-16T07:30:38.826Z,48.02
2022-08-16T07:32:53.844Z,47.63
2022-08-16T07:35:20.334Z,47.57
2022-08-16T07:37:46.918Z,47.29
2022-08-16T07:40:13.982Z,48.00
2022-08-16T07:42:40.926Z,46.78
2022-08-16T07:45:10.226Z,47.23
2022-08-16T07:47:37.596Z,47.43
2022-08-16T07:50:07.595Z,47.89
2022-08-16T07:52:34.951Z,46.62
2022-08-16T07:55:06.898Z,46.71
2022-08-16T07:57:55.908Z,46.56
2022-08-16T08:00:26.545Z,46.10
2022-08-16T08:02:53.730Z,46.29
2022-08-16T08:05:28.198Z,45.67
2022-08-16T08:08:03.212Z,46.12
2022-08-16T08:10:38.839Z,46.21
2022-08-16T08:13:05.493Z,45.76
2022-08-16T08:15:34.533Z,45.21
2022-08-16T08:18:30.058Z,44.81
2022-08-16T08:20:59.422Z,44.27
2022-08-16T08:23:27.742Z,44.88
2022-08-16T08:25:55.860Z,44.80
2022-08-16T08:28:22.952Z,44.61
2022-08-16T08:31:01.633Z,44.16
2022-08-16T08:33:31.563Z,44.19
2022-08-16T08:36:01.214Z,44.23
2022-08-16T08:38:43.936Z,43.31
2022-08-16T08:41:13.059Z,42.99
2022-08-16T08:43:41.904Z,42.74
2022-08-16T08:46:18.007Z,42.78
2022-08-16T08:48:45.916Z,42.57
2022-08-16T08:51:27.714Z,42.36
2022-08-16T08:54:06.967Z,41.62
2022-08-16T08:56:35.020Z,42.29
2022-08-16T08:59:12.802Z,41.42
2022-08-16T09:01:43.079Z,41.40
2022-08-16T09:04:24.092Z,41.29
2022-08-16T09:06:53.655Z,41.38
2022-08-16T09:09:20.550Z,40.92
2022-08-16T09:11:52.434Z,40.49
2022-08-16T09:14:31.404Z,40.66
2022-08-16T09:17:05.145Z,40.52
2022-08-16T09:19:40.997Z,39.87
2022-08-16T09:22:20.972Z,39.58
2022-08-16T09:24:52.551Z,39.99
2022-08-16T09:27:21.644Z,39.75
2022-08-16T09:30:00.199Z,40.31
2022-08-16T09:32:30.896Z,39.23
2022-08-16T09:34:59.659Z,39.46
2022-08-16T09:37:36.829Z,39.34
2022-08-16T09:40:31.780Z,38.53
2022-08-16T09:42:56.522Z,38.81
2022-08-16T09:45:28.907Z,39.17
2022-08-16T09:47:58.440Z,39.22
2022-08-16T09:50:29.385Z,38.13
2022-08-16T09:53:15.115Z,37.59
2022-08-16T09:55:49.360Z,38.47
2022-08-16T09:58:41.727Z,37.78
2022-08-16T10:01:03.417Z,38.38
2022-08-16T10:03:30.537Z,36.34
2022-08-16T10:05:57.620Z,36.12
2022-08-16T10:08:26.538Z,35.95
2022-08-16T10:11:12.700Z,35.12
2022-08-16T10:13:41.589Z,35.31
2022-08-16T10:19:00.987Z,35.74
2022-08-16T10:21:23.561Z,38.29
2022-08-16T10:23:53.702Z,36.58
2022-08-16T10:27:16.981Z,36.48
2022-08-16T10:29:20.199Z,35.71
2022-08-16T10:31:53.461Z,34.62
2022-08-16T10:34:31.077Z,34.02
2022-08-16T10:36:59.241Z,33.93
2022-08-16T10:39:25.842Z,33.89
2022-08-16T10:41:52.639Z,33.85
2022-08-16T10:44:19.231Z,33.62
2022-08-16T10:46:45.771Z,31.86
2022-08-16T10:49:18.081Z,32.11
2022-08-16T10:52:02.681Z,33.41
2022-08-16T10:54:32.625Z,33.02
2022-08-16T10:57:01.022Z,33.65
2022-08-16T10:59:39.262Z,33.05
2022-08-16T11:02:57.795Z,32.42
2022-08-16T11:05:08.753Z,32.51
2022-08-16T11:07:45.096Z,31.59
2022-08-16T11:17:02.609Z,32.25
2022-08-16T11:19:06.105Z,31.70
2022-08-16T11:22:39.227Z,31.72
2022-08-16T11:24:42.468Z,31.94
2022-08-16T11:27:21.150Z,33.33
2022-08-16T11:29:52.944Z,31.85
2022-08-16T11:32:22.657Z,31.95
2022-08-16T11:35:10.821Z,31.69
2022-08-16T11:40:32.805Z,31.31
2022-08-16T11:43:01.403Z,30.50
2022-08-16T11:45:33.898Z,30.89
2022-08-16T11:48:02.901Z,30.93
2022-08-16T11:50:33.359Z,31.12
2022-08-16T11:53:05.976Z,31.25
2022-08-16T11:55:37.936Z,30.87
2022-08-16T11:58:07.416Z,30.62
2022-08-16T12:00:51.068Z,30.37
2022-08-16T12:03:19.268Z,31.04
2022-08-16T12:05:46.679Z,30.80
2022-08-16T12:08:18.489Z,30.03
2022-08-16T12:10:46.097Z,30.60
2022-08-16T12:13:13.828Z,30.90
2022-08-16T12:15:41.381Z,31.21
2022-08-16T12:18:09.134Z,30.80
2022-08-16T12:20:41.201Z,30.64
2022-08-16T12:23:09.893Z,30.45
2022-08-16T12:25:37.779Z,30.03
2022-08-16T12:28:07.229Z,31.72
2022-08-16T12:30:38.779Z,30.93
2022-08-16T12:33:08.129Z,29.93
2022-08-16T12:35:36.460Z,29.68
2022-08-16T12:38:08.833Z,29.85
2022-08-16T12:40:57.100Z,29.55
2022-08-16T12:43:25.654Z,30.15
2022-08-16T12:45:55.562Z,29.40
2022-08-16T12:48:46.618Z,29.95
2022-08-16T12:51:23.899Z,30.48
2022-08-16T12:53:53.366Z,29.06
2022-08-16T12:56:25.440Z,29.36
2022-08-16T12:58:53.430Z,28.46
2022-08-16T13:01:26.885Z,28.65
2022-08-16T13:04:12.284Z,29.49
2022-08-16T13:06:42.768Z,28.45
2022-08-16T13:09:20.858Z,28.86
2022-08-16T13:12:00.642Z,28.64
2022-08-16T13:14:39.329Z,29.89
2022-08-16T13:17:09.591Z,27.64
2022-08-16T13:22:27.255Z,27.59
2022-08-16T13:24:55.073Z,26.97
2022-08-16T13:27:59.155Z,27.11
2022-08-16T13:30:18.146Z,25.95
2022-08-16T13:32:57.650Z,26.73
2022-08-16T13:35:24.350Z,26.01
2022-08-16T13:37:52.306Z,25.87
2022-08-16T13:40:21.241Z,25.51
2022-08-16T13:42:49.666Z,25.61
2022-08-16T13:45:17.596Z,25.41
2022-08-16T13:47:45.982Z,25.37
2022-08-16T13:50:14.358Z,25.36
2022-08-16T13:52:40.927Z,24.93
2022-08-16T13:55:17.794Z,25.33
2022-08-16T13:58:35.772Z,24.80
2022-08-16T14:00:31.809Z,26.44
2022-08-16T14:02:59.263Z,26.33
2022-08-16T14:05:26.477Z,25.83
2022-08-16T14:07:53.999Z,25.48
2022-08-16T14:10:21.227Z,25.58
2022-08-16T14:12:47.925Z,25.72
2022-08-16T14:15:15.952Z,25.52
2022-08-16T14:18:17.213Z,25.34
2022-08-16T14:20:28.966Z,28.56
2022-08-16T14:22:56.788Z,28.65
2022-08-16T14:25:25.567Z,24.71
2022-08-16T14:27:54.674Z,24.96
2022-08-16T14:30:22.413Z,24.52
2022-08-16T14:32:51.092Z,24.38
2022-08-16T14:35:36.875Z,25.77
2022-08-16T14:38:13.455Z,24.40
2022-08-16T14:40:51.016Z,25.13
2022-08-16T14:43:21.236Z,27.71
2022-08-16T14:45:50.300Z,24.99
2022-08-16T14:48:23.040Z,24.52
2022-08-16T14:50:52.931Z,23.62
2022-08-16T14:53:19.515Z,23.97
2022-08-16T14:55:46.199Z,23.42
2022-08-16T14:58:19.130Z,24.39
2022-08-16T15:00:47.802Z,24.55
2022-08-16T15:03:18.598Z,24.17
2022-08-16T15:05:48.347Z,23.93
2022-08-16T15:08:17.818Z,23.72
2022-08-16T15:10:47.254Z,23.09
2022-08-16T15:13:15.084Z,22.15
2022-08-16T15:15:43.409Z,23.55
2022-08-16T15:18:11.768Z,23.41
2022-08-16T15:20:39.414Z,24.20
2022-08-16T15:23:08.400Z,23.47
2022-08-16T15:25:41.889Z,23.55
2022-08-16T15:28:14.427Z,23.90
2022-08-16T15:31:00.928Z,23.43
2022-08-16T15:33:32.064Z,23.69
2022-08-16T15:35:59.267Z,24.66
2022-08-16T15:38:43.555Z,23.76
2022-08-16T15:41:38.866Z,25.04
2022-08-16T15:44:13.844Z,24.84
2022-08-16T15:46:56.327Z,24.71
2022-08-16T15:49:37.825Z,25.41
2022-08-16T15:52:20.600Z,25.14
2022-08-16T15:54:53.476Z,24.52
2022-08-16T15:57:24.967Z,25.64
2022-08-16T15:59:55.959Z,24.94
2022-08-16T16:02:30.912Z,25.06
2022-08-16T16:05:00.812Z,24.69
2022-08-16T16:07:29.970Z,24.52
2022-08-16T16:09:58.952Z,24.26
2022-08-16T16:12:51.403Z,24.16
2022-08-16T16:15:17.697Z,24.49
2022-08-16T16:17:44.260Z,24.54
2022-08-16T16:20:18.601Z,24.40
2022-08-16T16:22:46.241Z,24.34
2022-08-16T16:25:15.890Z,24.24
2022-08-16T16:27:43.906Z,24.76
2022-08-16T16:30:32.981Z,24.79
2022-08-16T16:33:01.235Z,24.50
2022-08-16T16:35:30.696Z,24.42
2022-08-16T16:37:59.650Z,25.42
2022-08-16T16:40:33.053Z,25.32
2022-08-16T16:43:02.599Z,25.23
2022-08-16T16:45:34.838Z,25.92
2022-08-16T16:48:12.449Z,25.33
2022-08-16T16:50:45.373Z,26.48
2022-08-16T16:53:17.218Z,25.82
2022-08-16T16:55:51.712Z,25.72
2022-08-16T16:58:43.383Z,26.38
2022-08-16T17:01:19.801Z,26.16
2022-08-16T17:03:53.516Z,26.19
2022-08-16T17:06:20.538Z,26.33
2022-08-16T17:08:47.765Z,26.52
2022-08-16T17:11:18.214Z,26.59
2022-08-16T17:13:46.002Z,26.60
2022-08-16T17:16:18.412Z,26.72
2022-08-16T17:19:16.976Z,26.42
2022-08-16T17:21:34.428Z,26.52
2022-08-16T17:24:03.975Z,26.96
2022-08-16T17:26:50.387Z,26.95
2022-08-16T17:29:23.623Z,26.51
2022-08-16T17:32:02.573Z,26.47
2022-08-16T17:34:50.503Z,26.83
2022-08-16T17:37:17.921Z,26.92
2022-08-16T17:40:00.075Z,27.15
2022-08-16T17:42:30.818Z,27.40
2022-08-16T17:44:57.320Z,26.75
2022-08-16T17:47:24.203Z,27.02
2022-08-16T17:49:51.015Z,26.24
2022-08-16T17:52:17.706Z,26.26
2022-08-16T17:54:45.034Z,26.75
2022-08-16T17:57:12.981Z,27.30
2022-08-16T17:59:41.528Z,26.95
2022-08-16T18:02:52.885Z,27.02
2022-08-16T18:04:55.710Z,26.83
2022-08-16T18:07:22.531Z,27.01
2022-08-16T18:09:50.103Z,28.27
2022-08-16T18:12:54.978Z,28.97
2022-08-16T18:15:10.851Z,29.53
2022-08-16T18:17:38.002Z,30.26
2022-08-16T18:20:07.616Z,29.98
2022-08-16T18:22:34.457Z,29.86
2022-08-16T18:25:01.198Z,30.51
2022-08-16T18:27:29.697Z,30.18
2022-08-16T18:29:56.275Z,30.31
2022-08-16T18:32:24.703Z,30.29
2022-08-16T18:34:54.315Z,30.68
2022-08-16T18:37:24.814Z,30.57
2022-08-16T18:39:51.397Z,30.51
2022-08-16T18:42:17.921Z,30.88
2022-08-16T18:44:45.017Z,30.84
2022-08-16T18:47:11.593Z,30.51
2022-08-16T18:49:38.834Z,30.72
2022-08-16T18:52:05.954Z,31.52
2022-08-16T18:54:33.498Z,31.77
2022-08-16T18:57:03.380Z,31.82
2022-08-16T18:59:33.268Z,31.85
2022-08-16T19:02:04.794Z,32.38
2022-08-16T19:04:50.452Z,32.14
2022-08-16T19:07:20.925Z,32.29
2022-08-16T19:09:47.612Z,32.41
2022-08-16T19:12:15.954Z,33.25
2022-08-16T19:14:44.265Z,35.73
2022-08-16T19:17:11.383Z,36.00
2022-08-16T19:19:37.995Z,36.00
2022-08-16T19:22:05.998Z,36.49
2022-08-16T19:24:32.582Z,36.21
2022-08-16T19:26:59.115Z,35.91
2022-08-16T19:29:28.339Z,36.11
2022-08-16T19:31:54.930Z,36.52
2022-08-16T19:34:21.445Z,36.38
2022-08-16T19:36:48.073Z,35.99
2022-08-16T19:39:16.464Z,36.83
2022-08-16T19:41:53.282Z,36.04
2022-08-16T19:44:21.734Z,36.82
2022-08-16T19:46:49.251Z,36.44
2022-08-16T19:49:16.861Z,36.61
2022-08-16T19:51:45.166Z,37.13
2022-08-16T19:54:11.714Z,37.02
2022-08-16T19:56:38.319Z,37.11
2022-08-16T19:59:21.941Z,37.44
2022-08-16T20:01:52.204Z,37.36
2022-08-16T20:04:19.369Z,37.45
2022-08-16T20:06:46.916Z,37.92
2022-08-16T20:09:15.313Z,37.43
2022-08-16T20:11:44.904Z,37.66
2022-08-16T20:14:14.078Z,38.05
2022-08-16T20:16:52.432Z,37.62
2022-08-16T20:19:19.576Z,38.15
2022-08-16T20:21:46.394Z,38.09
2022-08-16T20:24:32.844Z,38.09
2022-08-16T20:26:59.508Z,38.45
2022-08-16T20:29:27.456Z,37.92
2022-08-16T20:31:54.133Z,38.43
2022-08-16T20:34:20.703Z,38.58
2022-08-16T20:36:47.302Z,38.33
2022-08-16T20:39:13.884Z,38.17
2022-08-16T20:41:42.408Z,39.04
2022-08-16T20:44:10.841Z,38.53
2022-08-16T20:46:39.819Z,39.01
2022-08-16T20:49:09.195Z,38.56
2022-08-16T20:51:47.023Z,38.95
2022-08-16T20:54:18.019Z,38.90
2022-08-16T20:56:44.535Z,39.05
2022-08-16T20:59:11.054Z,39.10
2022-08-16T21:01:46.281Z,39.05
2022-08-16T21:04:18.835Z,38.89
2022-08-16T21:06:53.178Z,39.35
2022-08-16T21:09:23.376Z,39.39
2022-08-16T21:11:53.447Z,39.07
2022-08-16T21:14:20.065Z,39.97
2022-08-16T21:16:46.547Z,39.80
2022-08-16T21:19:13.280Z,39.85
2022-08-16T21:21:39.792Z,39.85
2022-08-16T21:24:06.417Z,40.10
2022-08-16T21:26:34.903Z,39.41
2022-08-16T21:29:06.630Z,39.29
2022-08-16T21:31:37.704Z,39.63
2022-08-16T21:34:04.292Z,39.92
2022-08-16T21:36:35.208Z,39.83
2022-08-16T21:39:04.836Z,40.00
2022-08-16T21:41:31.961Z,39.98
2022-08-16T21:43:58.557Z,40.63
2022-08-16T21:46:25.052Z,40.22
2022-08-16T21:48:51.574Z,40.10
2022-08-16T21:51:18.354Z,40.30
2022-08-16T21:53:44.949Z,40.20
2022-08-16T21:56:16.466Z,40.41
2022-08-16T21:58:44.365Z,40.63
2022-08-16T22:01:10.917Z,40.32
2022-08-16T22:03:37.554Z,40.11
2022-08-16T22:06:12.598Z,40.36
2022-08-16T22:08:49.155Z,40.26
2022-08-16T22:11:19.695Z,40.26
2022-08-16T22:13:56.438Z,40.23
2022-08-16T22:16:27.806Z,40.63
2022-08-16T22:18:54.589Z,40.49
2022-08-16T22:21:21.334Z,40.74
2022-08-16T22:23:57.009Z,40.73
2022-08-16T22:26:30.142Z,38.05
2022-08-16T22:29:01.609Z,40.17
2022-08-16T22:31:29.351Z,40.61
2022-08-16T22:33:56.870Z,41.05
2022-08-16T22:36:24.009Z,41.45
2022-08-16T22:38:58.129Z,41.26
2022-08-16T22:41:26.520Z,41.61
2022-08-16T22:43:53.613Z,41.59
2022-08-16T22:46:20.847Z,41.86
2022-08-16T22:48:50.375Z,41.67
2022-08-16T22:51:18.370Z,41.97
2022-08-16T22:53:45.101Z,41.58
2022-08-16T22:56:11.766Z,41.81
2022-08-16T22:58:38.350Z,41.93
2022-08-16T23:01:09.068Z,41.34
2022-08-16T23:19:01.466Z,41.37
2022-08-16T23:21:28.026Z,41.57
2022-08-16T23:23:54.594Z,41.81
2022-08-16T23:26:44.026Z,41.58
2022-08-16T23:29:15.838Z,42.18
2022-08-16T23:31:53.468Z,41.84
2022-08-16T23:34:21.266Z,42.16
2022-08-16T23:36:47.752Z,42.13
2022-08-16T23:39:14.307Z,42.04
2022-08-16T23:41:40.817Z,42.17
2022-08-16T23:44:56.519Z,41.88
2022-08-16T23:46:54.129Z,42.06
2022-08-16T23:50:00.744Z,42.17
2022-08-16T23:52:08.739Z,42.26
2022-08-16T23:54:36.376Z,42.10
2022-08-16T23:57:03.500Z,42.25
2022-08-16T23:59:30.038Z,42.38
